Terminal Aerodrome Forecast
Issued by NWS Charleston, WV

Current Version | Previous Version | Graphics & Text | Print | Product List | Glossary On
Versions: 1 2 3 4 5 6 7 8 9 10 11 12 13 14 15 16 17
000
FTUS41 KRLX 240900 AAA
TAFPKB
TAF AMD
KPKB 240901Z 2409/2506 14004KT P6SM SCT060 OVC100
     FM241200 VRB03KT 6SM BR OVC030
     FM241400 15005KT P6SM BKN035
     FM242100 18010G15KT 4SM SHRA BR VCTS BKN035CB
     FM250100 24013G33KT P6SM BKN020=

USA.gov is the U.S. government's official web portal to all federal, state and local government web resources and services.